createdAt,value
2022-12-20T00:00:00.356Z,0.00
2022-12-20T00:01:00.339Z,0.00
2022-12-20T00:02:00.472Z,0.00
2022-12-20T00:03:00.390Z,0.00
2022-12-20T00:04:00.321Z,0.00
2022-12-20T00:05:00.350Z,0.00
2022-12-20T00:06:00.296Z,0.00
2022-12-20T00:07:00.346Z,0.00
2022-12-20T00:08:00.258Z,0.00
2022-12-20T00:09:00.265Z,0.00
2022-12-20T00:10:00.255Z,0.00
2022-12-20T00:11:00.243Z,0.00
2022-12-20T00:12:00.295Z,0.00
2022-12-20T00:13:00.207Z,0.00
2022-12-20T00:14:00.202Z,0.00
2022-12-20T00:15:00.185Z,0.00
2022-12-20T00:16:00.175Z,0.00
2022-12-20T00:17:00.160Z,0.00
2022-12-20T00:18:00.347Z,0.00
2022-12-20T00:19:00.197Z,0.00
2022-12-20T00:20:00.155Z,0.00
2022-12-20T00:21:00.135Z,0.00
2022-12-20T00:22:00.126Z,0.00
2022-12-20T00:23:00.125Z,0.00
2022-12-20T00:24:00.111Z,0.00
2022-12-20T00:25:00.106Z,0.00
2022-12-20T00:26:00.109Z,0.00
2022-12-20T00:27:00.035Z,0.00
2022-12-20T00:28:00.098Z,0.00
2022-12-20T00:29:00.032Z,0.00
2022-12-20T00:29:59.993Z,0.00
2022-12-20T00:30:59.996Z,0.00
2022-12-20T00:32:00.071Z,0.00
2022-12-20T00:32:59.991Z,0.00
2022-12-20T00:33:59.967Z,0.00
2022-12-20T00:34:59.952Z,0.00
2022-12-20T00:35:59.944Z,0.00
2022-12-20T00:36:59.933Z,0.00
2022-12-20T00:37:59.939Z,0.00
2022-12-20T00:38:59.933Z,0.00
2022-12-20T00:39:59.903Z,0.00
2022-12-20T00:40:59.905Z,0.00
2022-12-20T00:41:59.886Z,0.00
2022-12-20T00:42:59.892Z,0.00
2022-12-20T00:43:59.831Z,0.00
2022-12-20T00:44:59.844Z,0.00
2022-12-20T00:45:59.819Z,0.00
2022-12-20T00:46:59.932Z,0.00
2022-12-20T00:47:59.839Z,0.00
2022-12-20T00:48:59.810Z,0.00
2022-12-20T00:49:59.816Z,0.00
2022-12-20T00:50:59.792Z,0.00
2022-12-20T00:51:59.754Z,0.00
2022-12-20T00:52:59.821Z,0.00
2022-12-20T00:53:59.740Z,0.00
2022-12-20T00:54:59.736Z,0.00
2022-12-20T00:55:59.739Z,0.00
2022-12-20T00:56:59.707Z,0.00
2022-12-20T00:57:59.694Z,0.00
2022-12-20T00:58:59.731Z,0.00
2022-12-20T00:59:59.676Z,0.00
2022-12-20T01:00:59.712Z,0.00
2022-12-20T01:01:59.808Z,0.00
2022-12-20T01:02:59.823Z,0.00
2022-12-20T01:03:59.656Z,0.00
2022-12-20T01:04:59.613Z,0.00
2022-12-20T01:05:59.602Z,0.00
2022-12-20T01:06:59.591Z,0.00
2022-12-20T01:07:59.583Z,0.00
2022-12-20T01:08:59.638Z,0.00
2022-12-20T01:09:59.561Z,0.00
2022-12-20T01:10:59.555Z,0.00
2022-12-20T01:11:59.524Z,0.00
2022-12-20T01:12:59.531Z,0.00
2022-12-20T01:13:59.575Z,0.00
2022-12-20T01:14:59.507Z,0.00
2022-12-20T01:15:59.523Z,0.00
2022-12-20T01:16:59.560Z,0.00
2022-12-20T01:17:59.503Z,0.00
2022-12-20T01:18:59.491Z,0.00
2022-12-20T01:19:59.448Z,0.00
2022-12-20T01:20:59.429Z,0.00
2022-12-20T01:21:59.424Z,0.00
2022-12-20T01:22:59.418Z,0.00
2022-12-20T01:23:59.417Z,0.00
2022-12-20T01:24:59.380Z,0.00
2022-12-20T01:25:59.362Z,0.00
2022-12-20T01:26:59.376Z,0.00
2022-12-20T01:27:59.345Z,0.00
2022-12-20T01:28:59.402Z,0.00
2022-12-20T01:29:59.317Z,0.00
2022-12-20T01:30:59.333Z,0.00
2022-12-20T01:31:59.358Z,0.00
2022-12-20T01:32:59.307Z,0.00
2022-12-20T01:33:59.317Z,0.00
2022-12-20T01:34:59.294Z,0.00
2022-12-20T01:35:59.250Z,0.00
2022-12-20T01:36:59.242Z,0.00
2022-12-20T01:37:59.235Z,0.00
2022-12-20T01:38:59.279Z,0.00
2022-12-20T01:39:59.200Z,0.00
2022-12-20T01:40:59.218Z,0.00
2022-12-20T01:41:59.186Z,0.00
2022-12-20T01:42:59.191Z,0.00
2022-12-20T01:43:59.236Z,0.00
2022-12-20T01:44:59.151Z,0.00
2022-12-20T01:45:59.179Z,0.00
2022-12-20T01:46:59.157Z,0.00
2022-12-20T01:47:59.156Z,0.00
2022-12-20T01:48:59.146Z,0.00
2022-12-20T01:49:59.077Z,0.00
2022-12-20T01:50:59.081Z,0.00
2022-12-20T01:51:59.075Z,0.00
2022-12-20T01:52:59.049Z,0.00
2022-12-20T01:53:59.067Z,0.00
2022-12-20T01:54:59.033Z,0.00
2022-12-20T01:55:59.029Z,0.00
2022-12-20T01:56:59.034Z,0.00
2022-12-20T01:57:58.998Z,0.00
2022-12-20T01:58:59.084Z,0.00
2022-12-20T01:59:58.975Z,0.00
2022-12-20T02:00:59.045Z,0.00
2022-12-20T02:01:59.185Z,0.00
2022-12-20T02:02:59.108Z,0.00
2022-12-20T02:03:58.937Z,0.00
2022-12-20T02:04:58.954Z,0.00
2022-12-20T02:05:58.910Z,0.00
2022-12-20T02:06:58.906Z,0.00
2022-12-20T02:07:58.869Z,0.00
2022-12-20T02:08:58.867Z,0.00
2022-12-20T02:09:58.878Z,0.00
2022-12-20T02:10:58.850Z,0.00
2022-12-20T02:11:58.840Z,0.00
2022-12-20T02:12:58.815Z,0.00
2022-12-20T02:13:58.838Z,0.00
2022-12-20T02:14:58.835Z,0.00
2022-12-20T02:15:58.791Z,0.00
2022-12-20T02:16:58.877Z,0.00
2022-12-20T02:17:58.801Z,0.00
2022-12-20T02:18:58.762Z,0.00
2022-12-20T02:19:58.803Z,0.00
2022-12-20T02:20:58.731Z,0.00
2022-12-20T02:21:58.725Z,0.00
2022-12-20T02:22:58.699Z,0.00
2022-12-20T02:23:58.709Z,0.00
2022-12-20T02:24:58.741Z,0.00
2022-12-20T02:25:58.678Z,0.00
2022-12-20T02:26:58.707Z,0.00
2022-12-20T02:27:58.661Z,0.00
2022-12-20T02:28:58.628Z,0.00
2022-12-20T02:29:58.683Z,0.00
2022-12-20T02:30:58.609Z,0.00
2022-12-20T02:31:58.624Z,0.00
2022-12-20T02:32:58.614Z,0.00
2022-12-20T02:33:58.594Z,0.00
2022-12-20T02:34:58.635Z,0.00
2022-12-20T02:35:58.551Z,0.00
2022-12-20T02:36:58.541Z,0.00
2022-12-20T02:37:58.536Z,0.00
2022-12-20T02:38:58.523Z,0.00
2022-12-20T02:39:58.538Z,0.00
2022-12-20T02:40:58.496Z,0.00
2022-12-20T02:41:58.512Z,0.00
2022-12-20T02:42:58.470Z,0.00
2022-12-20T02:43:58.457Z,0.00
2022-12-20T02:44:58.455Z,0.00
2022-12-20T02:45:58.604Z,0.00
2022-12-20T02:46:58.448Z,0.00
2022-12-20T02:47:58.443Z,0.00
2022-12-20T02:48:58.418Z,0.00
2022-12-20T02:49:58.392Z,0.00
2022-12-20T02:50:58.418Z,0.00
2022-12-20T02:51:58.383Z,0.00
2022-12-20T02:52:58.356Z,0.00
2022-12-20T02:53:58.389Z,0.00
2022-12-20T02:54:58.334Z,0.00
2022-12-20T02:55:58.361Z,0.00
2022-12-20T02:56:58.310Z,0.00
2022-12-20T02:58:00.678Z,0.00
2022-12-20T02:58:58.286Z,0.00
2022-12-20T02:59:58.271Z,0.00
2022-12-20T03:00:58.384Z,0.00
2022-12-20T03:01:58.409Z,0.00
2022-12-20T03:02:58.346Z,0.00
2022-12-20T03:03:58.265Z,0.00
2022-12-20T03:04:58.240Z,0.00
2022-12-20T03:05:58.271Z,0.00
2022-12-20T03:06:58.208Z,0.00
2022-12-20T03:07:58.201Z,0.00
2022-12-20T03:08:58.193Z,0.00
2022-12-20T03:09:58.168Z,0.00
2022-12-20T03:10:58.197Z,0.00
2022-12-20T03:11:58.157Z,0.00
2022-12-20T03:12:58.133Z,0.00
2022-12-20T03:13:58.140Z,0.00
2022-12-20T03:14:58.088Z,0.00
2022-12-20T03:15:58.158Z,0.00
2022-12-20T03:16:58.172Z,0.00
2022-12-20T03:17:58.081Z,0.00
2022-12-20T03:18:58.064Z,0.00
2022-12-20T03:19:58.074Z,0.00
2022-12-20T03:20:58.070Z,0.00
2022-12-20T03:21:58.046Z,0.00
2022-12-20T03:22:58.012Z,0.00
2022-12-20T03:23:58.018Z,0.00
2022-12-20T03:24:57.990Z,0.00
2022-12-20T03:25:58.047Z,0.00
2022-12-20T03:26:57.968Z,0.00
2022-12-20T03:27:57.957Z,0.00
2022-12-20T03:28:57.946Z,0.00
2022-12-20T03:29:57.939Z,0.00
2022-12-20T03:30:58.032Z,0.00
2022-12-20T03:31:57.916Z,0.00
2022-12-20T03:32:57.903Z,0.00
2022-12-20T03:33:57.894Z,0.00
2022-12-20T03:34:57.891Z,0.00
2022-12-20T03:35:57.913Z,0.00
2022-12-20T03:36:57.862Z,0.00
2022-12-20T03:37:57.845Z,0.00
2022-12-20T03:38:57.844Z,0.00
2022-12-20T03:39:57.841Z,0.00
2022-12-20T03:40:57.865Z,0.00
2022-12-20T03:41:57.819Z,0.00
2022-12-20T03:42:57.807Z,0.00
2022-12-20T03:43:57.840Z,0.00
2022-12-20T03:44:57.795Z,0.00
2022-12-20T03:45:57.831Z,0.00
2022-12-20T03:46:57.757Z,0.00
2022-12-20T03:47:57.748Z,0.00
2022-12-20T03:48:57.728Z,0.00
2022-12-20T03:49:57.757Z,0.00
2022-12-20T03:50:57.786Z,0.00
2022-12-20T03:51:57.696Z,0.00
2022-12-20T03:52:57.691Z,0.00
2022-12-20T03:53:57.664Z,0.00
2022-12-20T03:54:57.668Z,0.00
2022-12-20T03:55:57.697Z,0.00
2022-12-20T03:56:57.645Z,0.00
2022-12-20T03:57:57.623Z,0.00
2022-12-20T03:58:57.634Z,0.00
2022-12-20T03:59:57.600Z,0.00
2022-12-20T04:00:57.641Z,0.00
2022-12-20T04:01:57.778Z,0.00
2022-12-20T04:02:57.688Z,0.00
2022-12-20T04:03:57.626Z,0.00
2022-12-20T04:04:57.544Z,0.00
2022-12-20T04:05:57.571Z,0.00
2022-12-20T04:06:57.507Z,0.00
2022-12-20T04:07:57.513Z,0.00
2022-12-20T04:08:57.527Z,0.00
2022-12-20T04:09:57.492Z,0.00
2022-12-20T04:10:57.538Z,0.00
2022-12-20T04:11:57.465Z,0.00
2022-12-20T04:12:57.455Z,0.00
2022-12-20T04:13:57.449Z,0.00
2022-12-20T04:14:57.410Z,0.00
2022-12-20T04:16:00.661Z,0.00
2022-12-20T04:16:57.397Z,0.00
2022-12-20T04:17:57.425Z,0.00
2022-12-20T04:18:57.391Z,0.00
2022-12-20T04:19:57.363Z,0.00
2022-12-20T04:20:57.388Z,0.00
2022-12-20T04:22:02.880Z,0.00
2022-12-20T04:22:58.325Z,0.00
2022-12-20T04:23:57.324Z,0.00
2022-12-20T04:24:57.353Z,0.00
2022-12-20T04:25:57.357Z,0.00
2022-12-20T04:26:57.303Z,0.00
2022-12-20T04:27:57.307Z,0.00
2022-12-20T04:28:57.301Z,0.00
2022-12-20T04:29:57.254Z,0.00
2022-12-20T04:30:57.299Z,0.00
2022-12-20T04:31:57.280Z,0.00
2022-12-20T04:32:57.221Z,0.00
2022-12-20T04:33:57.222Z,0.00
2022-12-20T04:34:57.196Z,0.00
2022-12-20T04:35:57.231Z,0.00
2022-12-20T04:36:57.176Z,0.00
2022-12-20T04:37:57.171Z,0.00
2022-12-20T04:38:57.171Z,0.00
2022-12-20T04:39:57.147Z,0.00
2022-12-20T04:40:57.171Z,0.00
2022-12-20T04:41:57.113Z,0.00
2022-12-20T04:42:57.104Z,0.00
2022-12-20T04:43:57.116Z,0.00
2022-12-20T04:44:57.088Z,0.00
2022-12-20T04:45:57.108Z,0.00
2022-12-20T04:46:57.111Z,0.00
2022-12-20T04:47:57.048Z,0.00
2022-12-20T04:48:59.356Z,0.00
2022-12-20T04:49:57.055Z,0.00
2022-12-20T04:50:57.046Z,0.00
2022-12-20T04:51:57.007Z,0.00
2022-12-20T04:52:56.986Z,0.00
2022-12-20T04:53:57.013Z,0.00
2022-12-20T04:54:56.964Z,0.00
2022-12-20T04:55:56.987Z,0.00
2022-12-20T04:56:56.954Z,0.00
2022-12-20T04:57:59.508Z,0.00
2022-12-20T04:58:57.929Z,0.00
2022-12-20T04:59:56.915Z,0.00
2022-12-20T05:00:56.937Z,0.00
2022-12-20T05:01:57.064Z,0.00
2022-12-20T05:02:56.982Z,0.00
2022-12-20T05:03:56.902Z,0.00
2022-12-20T05:04:56.858Z,0.00
2022-12-20T05:05:56.881Z,0.00
2022-12-20T05:06:56.880Z,0.00
2022-12-20T05:07:56.843Z,0.00
2022-12-20T05:08:56.823Z,0.00
2022-12-20T05:09:56.820Z,0.00
2022-12-20T05:10:56.822Z,0.00
2022-12-20T05:11:56.786Z,0.00
2022-12-20T05:12:56.761Z,0.00
2022-12-20T05:13:56.752Z,0.00
2022-12-20T05:14:56.743Z,0.00
2022-12-20T05:15:56.810Z,0.00
2022-12-20T05:16:56.708Z,0.00
2022-12-20T05:17:56.721Z,0.00
2022-12-20T05:18:56.690Z,0.00
2022-12-20T05:19:56.691Z,0.00
2022-12-20T05:20:56.733Z,0.00
2022-12-20T05:21:56.677Z,0.00
2022-12-20T05:22:56.649Z,0.00
2022-12-20T05:23:56.657Z,0.00
2022-12-20T05:24:56.622Z,0.00
2022-12-20T05:25:56.663Z,0.00
2022-12-20T05:26:56.611Z,0.00
2022-12-20T05:27:56.606Z,0.00
2022-12-20T05:28:56.590Z,0.00
2022-12-20T05:29:56.581Z,0.00
2022-12-20T05:30:56.637Z,0.00
2022-12-20T05:31:56.611Z,0.00
2022-12-20T05:32:56.546Z,0.00
2022-12-20T05:33:56.560Z,0.00
2022-12-20T05:34:56.518Z,0.00
2022-12-20T05:35:56.540Z,0.00
2022-12-20T05:36:56.505Z,0.00
2022-12-20T05:37:56.504Z,0.00
2022-12-20T05:39:01.900Z,0.00
2022-12-20T05:39:57.457Z,0.00
2022-12-20T05:40:56.506Z,0.00
2022-12-20T05:41:56.442Z,0.00
2022-12-20T05:42:56.417Z,0.00
2022-12-20T05:43:56.427Z,0.00
2022-12-20T05:44:56.388Z,0.00
2022-12-20T05:45:56.427Z,0.00
2022-12-20T05:46:56.467Z,0.00
2022-12-20T05:47:56.383Z,0.00
2022-12-20T05:48:56.344Z,0.00
2022-12-20T05:49:56.365Z,0.00
2022-12-20T05:50:56.361Z,0.00
2022-12-20T05:51:56.353Z,0.00
2022-12-20T05:52:56.306Z,0.00
2022-12-20T05:53:56.304Z,0.00
2022-12-20T05:54:56.308Z,0.00
2022-12-20T05:55:56.308Z,0.00
2022-12-20T05:56:56.278Z,0.00
2022-12-20T05:57:56.274Z,0.00
2022-12-20T05:58:56.229Z,0.00
2022-12-20T05:59:56.236Z,0.00
2022-12-20T06:00:56.237Z,0.00
2022-12-20T06:01:56.327Z,0.00
2022-12-20T06:02:56.408Z,0.00
2022-12-20T06:03:56.316Z,0.00
2022-12-20T06:04:56.172Z,0.00
2022-12-20T06:05:56.221Z,0.00
2022-12-20T06:06:56.141Z,0.00
2022-12-20T06:07:56.132Z,0.00
2022-12-20T06:08:56.149Z,0.00
2022-12-20T06:09:56.122Z,0.00
2022-12-20T06:10:56.134Z,0.00
2022-12-20T06:11:56.103Z,0.00
2022-12-20T06:12:56.094Z,0.00
2022-12-20T06:13:56.077Z,0.00
2022-12-20T06:14:56.053Z,0.00
2022-12-20T06:15:56.177Z,0.00
2022-12-20T06:16:56.101Z,0.00
2022-12-20T06:17:56.031Z,0.00
2022-12-20T06:18:56.044Z,0.00
2022-12-20T06:19:56.003Z,0.00
2022-12-20T06:20:56.035Z,0.00
2022-12-20T06:21:55.967Z,0.00
2022-12-20T06:22:55.982Z,0.00
2022-12-20T06:23:55.939Z,0.00
2022-12-20T06:24:55.938Z,0.00
2022-12-20T06:25:55.963Z,0.00
2022-12-20T06:26:55.949Z,0.00
2022-12-20T06:27:55.907Z,0.00
2022-12-20T06:28:55.915Z,0.00
2022-12-20T06:29:55.911Z,0.00
2022-12-20T06:30:55.950Z,0.00
2022-12-20T06:31:55.896Z,0.00
2022-12-20T06:32:55.855Z,0.00
2022-12-20T06:33:55.836Z,0.00
2022-12-20T06:34:55.838Z,4.00
2022-12-20T06:35:55.884Z,4.00
2022-12-20T06:36:55.804Z,4.00
2022-12-20T06:37:55.803Z,4.00
2022-12-20T06:38:55.812Z,8.00
2022-12-20T06:39:55.780Z,8.00
2022-12-20T06:40:55.813Z,8.00
2022-12-20T06:41:55.765Z,12.00
2022-12-20T06:42:55.749Z,12.00
2022-12-20T06:43:55.727Z,16.00
2022-12-20T06:44:55.728Z,20.00
2022-12-20T06:45:55.832Z,24.00
2022-12-20T06:46:55.725Z,28.00
2022-12-20T06:47:55.693Z,32.00
2022-12-20T06:48:55.675Z,36.00
2022-12-20T06:49:55.659Z,44.00
2022-12-20T06:50:56.445Z,52.00
2022-12-20T06:51:55.664Z,56.00
2022-12-20T06:52:55.651Z,64.00
2022-12-20T06:53:55.621Z,72.00
2022-12-20T06:54:55.618Z,80.00
2022-12-20T06:55:55.630Z,88.00
2022-12-20T06:56:55.600Z,100.00
2022-12-20T06:57:55.587Z,112.00
2022-12-20T06:58:55.563Z,124.00
2022-12-20T06:59:55.585Z,136.00
2022-12-20T07:00:55.679Z,148.00
2022-12-20T07:01:55.649Z,160.00
2022-12-20T07:02:55.696Z,172.00
2022-12-20T07:03:55.539Z,188.00
2022-12-20T07:04:55.596Z,208.00
2022-12-20T07:05:55.540Z,220.00
2022-12-20T07:06:55.479Z,236.00
2022-12-20T07:07:55.451Z,252.00
2022-12-20T07:08:55.455Z,264.00
2022-12-20T07:09:55.450Z,276.00
2022-12-20T07:10:55.469Z,276.00
2022-12-20T07:11:55.443Z,280.00
2022-12-20T07:12:55.415Z,288.00
2022-12-20T07:13:55.391Z,300.00
2022-12-20T07:14:55.389Z,316.00
2022-12-20T07:15:55.399Z,336.00
2022-12-20T07:16:55.482Z,368.00
2022-12-20T07:17:55.378Z,404.00
2022-12-20T07:18:55.349Z,440.00
2022-12-20T07:19:55.327Z,480.00
2022-12-20T07:20:55.363Z,524.00
2022-12-20T07:21:55.340Z,564.00
2022-12-20T07:22:55.293Z,612.00
2022-12-20T07:23:55.312Z,664.00
2022-12-20T07:24:55.278Z,732.00
2022-12-20T07:25:55.311Z,820.00
2022-12-20T07:26:55.252Z,900.00
2022-12-20T07:27:55.278Z,972.00
2022-12-20T07:28:55.222Z,1032.00
2022-12-20T07:29:55.206Z,1080.00
2022-12-20T07:30:55.202Z,1132.00
2022-12-20T07:31:55.301Z,1176.00
2022-12-20T07:32:55.183Z,1200.00
2022-12-20T07:33:55.181Z,1216.00
2022-12-20T07:34:55.166Z,1224.00
2022-12-20T07:35:55.166Z,1208.00
2022-12-20T07:36:55.183Z,1156.00
2022-12-20T07:37:55.132Z,1072.00
2022-12-20T07:38:55.109Z,1008.00
2022-12-20T07:39:55.128Z,1024.00
2022-12-20T07:40:55.100Z,1108.00
2022-12-20T07:41:55.126Z,1204.00
2022-12-20T07:42:55.081Z,1252.00
2022-12-20T07:43:55.033Z,1232.00
2022-12-20T07:44:55.036Z,1172.00
2022-12-20T07:45:55.210Z,1108.00
2022-12-20T07:46:55.049Z,1068.00
2022-12-20T07:47:55.064Z,1060.00
2022-12-20T07:48:54.993Z,1076.00
2022-12-20T07:49:54.993Z,1124.00
2022-12-20T07:50:54.969Z,1212.00
2022-12-20T07:51:55.011Z,1340.00
2022-12-20T07:52:54.951Z,1480.00
2022-12-20T07:53:54.954Z,1580.00
2022-12-20T07:54:54.934Z,1588.00
2022-12-20T07:55:54.904Z,1544.00
2022-12-20T07:56:54.975Z,1512.00
2022-12-20T07:57:54.889Z,1532.00
2022-12-20T07:58:54.887Z,1584.00
2022-12-20T07:59:54.867Z,1628.00
2022-12-20T08:00:54.945Z,1644.00
2022-12-20T08:01:58.089Z,1624.00
2022-12-20T08:02:55.970Z,1600.00
2022-12-20T08:03:54.865Z,1596.00
2022-12-20T08:04:54.835Z,1636.00
2022-12-20T08:05:54.821Z,1672.00
2022-12-20T08:06:54.857Z,1676.00
2022-12-20T08:07:59.014Z,1652.00
2022-12-20T08:08:54.792Z,1604.00
2022-12-20T08:09:54.745Z,1592.00
2022-12-20T08:10:54.760Z,1576.00
2022-12-20T08:11:54.766Z,1588.00
2022-12-20T08:12:54.731Z,1660.00
2022-12-20T08:13:58.096Z,1792.00
2022-12-20T08:14:54.705Z,1960.00
2022-12-20T08:15:54.672Z,2128.00
2022-12-20T08:16:54.761Z,2312.00
2022-12-20T08:17:54.676Z,2500.00
2022-12-20T08:18:54.649Z,2660.00
2022-12-20T08:19:54.641Z,2768.00
2022-12-20T08:20:54.629Z,2856.00
2022-12-20T08:21:54.647Z,3012.00
2022-12-20T08:22:54.604Z,3244.00
2022-12-20T08:23:54.611Z,3540.00
2022-12-20T08:24:54.596Z,3932.00
2022-12-20T08:25:54.555Z,4372.00
2022-12-20T08:26:54.592Z,4740.00
2022-12-20T08:27:54.536Z,4960.00
2022-12-20T08:28:54.551Z,4912.00
2022-12-20T08:29:54.541Z,4652.00
2022-12-20T08:30:54.626Z,4400.00
2022-12-20T08:31:54.509Z,4176.00
2022-12-20T08:32:54.507Z,3872.00
2022-12-20T08:33:54.459Z,3528.00
2022-12-20T08:34:54.470Z,3320.00
2022-12-20T08:35:54.427Z,3220.00
2022-12-20T08:36:54.423Z,3176.00
2022-12-20T08:37:54.465Z,3200.00
2022-12-20T08:38:54.443Z,3204.00
2022-12-20T08:39:54.399Z,3292.00
2022-12-20T08:40:54.406Z,3484.00
2022-12-20T08:41:54.395Z,3540.00
2022-12-20T08:42:54.418Z,3488.00
2022-12-20T08:43:54.356Z,3444.00
2022-12-20T08:44:54.359Z,3460.00
2022-12-20T08:45:54.420Z,3452.00
2022-12-20T08:46:54.331Z,3436.00
2022-12-20T08:47:54.355Z,3396.00
2022-12-20T08:48:54.322Z,3240.00
2022-12-20T08:49:54.296Z,3076.00
2022-12-20T08:50:54.406Z,3148.00
2022-12-20T08:51:54.294Z,3324.00
2022-12-20T08:52:54.289Z,3440.00
2022-12-20T08:53:54.257Z,3456.00
2022-12-20T08:54:54.267Z,3440.00
2022-12-20T08:55:54.247Z,3480.00
2022-12-20T08:56:54.215Z,3716.00
2022-12-20T08:57:54.271Z,4200.00
2022-12-20T08:58:54.201Z,4748.00
2022-12-20T08:59:54.176Z,5020.00
2022-12-20T09:00:54.236Z,4904.00
2022-12-20T09:01:54.246Z,4588.00
2022-12-20T09:02:54.589Z,4360.00
2022-12-20T09:03:54.205Z,4360.00
2022-12-20T09:04:54.125Z,4472.00
2022-12-20T09:05:54.091Z,4564.00
2022-12-20T09:06:54.101Z,4656.00
2022-12-20T09:07:54.140Z,4800.00
2022-12-20T09:08:54.066Z,5108.00
2022-12-20T09:09:54.062Z,5792.00
2022-12-20T09:10:54.047Z,6992.00
2022-12-20T09:11:54.042Z,8252.00
2022-12-20T09:12:54.073Z,8864.00
2022-12-20T09:13:54.018Z,8640.00
2022-12-20T09:14:54.002Z,7820.00
2022-12-20T09:15:54.016Z,6768.00
2022-12-20T09:16:53.991Z,5788.00
2022-12-20T09:17:53.953Z,5060.00
2022-12-20T09:18:57.715Z,4692.00
2022-12-20T09:19:54.942Z,4664.00
2022-12-20T09:20:53.947Z,4808.00
2022-12-20T09:21:53.916Z,5064.00
2022-12-20T09:22:53.908Z,5428.00
2022-12-20T09:23:53.922Z,5508.00
2022-12-20T09:24:53.890Z,5172.00
2022-12-20T09:25:54.223Z,4772.00
2022-12-20T09:26:53.868Z,4712.00
2022-12-20T09:27:53.861Z,5004.00
2022-12-20T09:28:54.004Z,5420.00
2022-12-20T09:29:53.824Z,5596.00
2022-12-20T09:30:53.847Z,5416.00
2022-12-20T09:31:53.799Z,5320.00
2022-12-20T09:32:53.813Z,5452.00
2022-12-20T09:33:53.835Z,5532.00
2022-12-20T09:34:53.755Z,5476.00
2022-12-20T09:35:53.750Z,5504.00
2022-12-20T09:36:53.768Z,5692.00
2022-12-20T09:37:53.754Z,5900.00
2022-12-20T09:38:53.776Z,6064.00
2022-12-20T09:39:53.736Z,6216.00
2022-12-20T09:40:53.729Z,6452.00
2022-12-20T09:41:53.722Z,6756.00
2022-12-20T09:44:04.495Z,7388.00
2022-12-20T09:45:04.460Z,7668.00
2022-12-20T09:46:04.614Z,7812.00
2022-12-20T09:47:10.154Z,7840.00
2022-12-20T09:48:05.414Z,7980.00
2022-12-20T09:49:04.449Z,8500.00
2022-12-20T09:50:04.375Z,9352.00
2022-12-20T09:51:04.401Z,10316.00
2022-12-20T09:52:04.378Z,11148.00
2022-12-20T09:53:04.359Z,11860.00
2022-12-20T09:54:04.378Z,12520.00
2022-12-20T09:55:04.352Z,13148.00
2022-12-20T09:56:04.336Z,13756.00
2022-12-20T09:57:04.336Z,14320.00
2022-12-20T09:58:04.288Z,14676.00
2022-12-20T09:59:04.349Z,14980.00
2022-12-20T10:00:04.288Z,15196.00
2022-12-20T10:01:04.274Z,15284.00
2022-12-20T10:02:26.936Z,15284.00
2022-12-20T10:03:10.287Z,15252.00
2022-12-20T10:04:05.641Z,15152.00
2022-12-20T10:05:04.328Z,15160.00
2022-12-20T10:06:04.365Z,14028.00
2022-12-20T10:07:04.199Z,13160.00
2022-12-20T10:08:04.185Z,12664.00
2022-12-20T10:09:04.219Z,12280.00
2022-12-20T10:10:04.170Z,11956.00
2022-12-20T10:11:04.166Z,11700.00
2022-12-20T10:12:04.167Z,11484.00
2022-12-20T10:13:04.141Z,11296.00
2022-12-20T10:14:04.145Z,11152.00
2022-12-20T10:15:04.158Z,11048.00
2022-12-20T10:16:04.163Z,11004.00
2022-12-20T10:17:04.097Z,10992.00
2022-12-20T10:18:04.102Z,11012.00
2022-12-20T10:19:04.081Z,10948.00
2022-12-20T10:20:04.108Z,10828.00
2022-12-20T10:21:04.048Z,10612.00
2022-12-20T10:22:04.019Z,10316.00
2022-12-20T10:23:04.036Z,9992.00
2022-12-20T10:24:04.018Z,9704.00
2022-12-20T10:25:04.040Z,9380.00
2022-12-20T10:26:03.988Z,9032.00
2022-12-20T10:27:03.972Z,8772.00
2022-12-20T10:28:03.960Z,8628.00
2022-12-20T10:29:03.969Z,8524.00
2022-12-20T10:30:03.976Z,8428.00
2022-12-20T10:31:04.006Z,8380.00
2022-12-20T10:32:03.936Z,8208.00
2022-12-20T10:33:03.938Z,7988.00
2022-12-20T10:34:03.892Z,7720.00
2022-12-20T10:35:03.933Z,7428.00
2022-12-20T10:36:03.867Z,7208.00
2022-12-20T10:37:03.853Z,7056.00
2022-12-20T10:38:08.320Z,6968.00
2022-12-20T10:39:04.835Z,6948.00
2022-12-20T10:40:07.691Z,7020.00
2022-12-20T10:41:21.202Z,7004.00
2022-12-20T10:42:04.807Z,7056.00
2022-12-20T10:43:03.783Z,7268.00
2022-12-20T10:44:03.775Z,7556.00
2022-12-20T10:45:03.804Z,8020.00
2022-12-20T10:46:03.819Z,8628.00
2022-12-20T10:47:03.899Z,9248.00
2022-12-20T10:48:03.735Z,9728.00
2022-12-20T10:49:03.730Z,10064.00
2022-12-20T10:50:03.754Z,10380.00
2022-12-20T10:51:03.711Z,10636.00
2022-12-20T10:52:03.701Z,10904.00
2022-12-20T10:53:03.682Z,11052.00
2022-12-20T10:54:03.686Z,11176.00
2022-12-20T10:55:03.702Z,10992.00
2022-12-20T10:56:03.632Z,10732.00
2022-12-20T10:57:03.637Z,10576.00
2022-12-20T10:58:03.649Z,10284.00
2022-12-20T10:59:03.616Z,10056.00
2022-12-20T11:00:03.627Z,9948.00
2022-12-20T11:01:03.625Z,9836.00
2022-12-20T11:02:03.716Z,9744.00
2022-12-20T11:03:03.768Z,9780.00
2022-12-20T11:04:03.655Z,9892.00
2022-12-20T11:05:03.541Z,9952.00
2022-12-20T11:06:03.562Z,9896.00
2022-12-20T11:07:03.494Z,9712.00
2022-12-20T11:09:04.488Z,9656.00
2022-12-20T11:10:03.467Z,9652.00
2022-12-20T11:11:03.489Z,9628.00
2022-12-20T11:12:03.449Z,9616.00
2022-12-20T11:13:03.434Z,9624.00
2022-12-20T11:14:03.411Z,9080.00
2022-12-20T11:15:03.400Z,8652.00
2022-12-20T11:16:03.478Z,8268.00
2022-12-20T11:17:03.385Z,7888.00
2022-12-20T11:18:03.404Z,7532.00
2022-12-20T11:19:03.371Z,7304.00
2022-12-20T11:20:03.373Z,7316.00
2022-12-20T11:21:03.370Z,7552.00
2022-12-20T11:22:03.343Z,7960.00
2022-12-20T11:23:03.355Z,8380.00
2022-12-20T11:24:03.362Z,8732.00
2022-12-20T11:25:03.299Z,9120.00
2022-12-20T11:26:03.318Z,9588.00
2022-12-20T11:27:03.286Z,10000.00
2022-12-20T11:28:03.271Z,10236.00
2022-12-20T11:29:03.270Z,10488.00
2022-12-20T11:30:03.246Z,10960.00
2022-12-20T11:31:03.320Z,11568.00
2022-12-20T11:32:03.268Z,12252.00
2022-12-20T11:33:03.209Z,13016.00
2022-12-20T11:34:03.203Z,13708.00
2022-12-20T11:35:03.219Z,14148.00
2022-12-20T11:36:03.217Z,14268.00
2022-12-20T11:37:03.146Z,14312.00
2022-12-20T11:38:09.186Z,14464.00
2022-12-20T11:39:04.141Z,14724.00
2022-12-20T11:40:03.138Z,14916.00
2022-12-20T11:41:03.165Z,15216.00
2022-12-20T11:42:03.106Z,15408.00
2022-12-20T11:43:03.076Z,15132.00
2022-12-20T11:45:09.748Z,13852.00
2022-12-20T11:46:04.091Z,12832.00
2022-12-20T11:47:03.104Z,11660.00
2022-12-20T11:48:03.046Z,10596.00
2022-12-20T11:49:03.036Z,10124.00
2022-12-20T11:50:03.012Z,10064.00
2022-12-20T11:51:03.048Z,9744.00
2022-12-20T11:52:02.991Z,9512.00
2022-12-20T11:53:02.987Z,9476.00
2022-12-20T11:54:02.982Z,9560.00
2022-12-20T11:55:02.969Z,9680.00
2022-12-20T11:56:03.003Z,9860.00
2022-12-20T11:57:02.934Z,10136.00
2022-12-20T11:58:18.189Z,10356.00
2022-12-20T11:59:03.913Z,10572.00
2022-12-20T12:00:02.923Z,10988.00
2022-12-20T12:01:02.925Z,11252.00
2022-12-20T12:02:02.953Z,11136.00
2022-12-20T12:03:02.952Z,10756.00
2022-12-20T12:04:02.862Z,10580.00
2022-12-20T12:05:02.904Z,10864.00
2022-12-20T12:06:02.879Z,11496.00
2022-12-20T12:07:02.838Z,12736.00
2022-12-20T12:08:02.827Z,13652.00
2022-12-20T12:09:02.784Z,14948.00
2022-12-20T12:10:02.810Z,17696.00
2022-12-20T12:11:02.828Z,21248.00
2022-12-20T12:12:08.316Z,10924.00
2022-12-20T12:13:03.755Z,9608.00
2022-12-20T12:14:02.765Z,9520.00
2022-12-20T12:15:02.713Z,9792.00
2022-12-20T12:16:02.803Z,10264.00
2022-12-20T12:17:02.733Z,11088.00
2022-12-20T12:18:02.702Z,10768.00
2022-12-20T12:19:02.674Z,10496.00
2022-12-20T12:20:02.699Z,10024.00
2022-12-20T12:21:08.553Z,9348.00
2022-12-20T12:22:03.654Z,8768.00
2022-12-20T12:23:02.649Z,8280.00
2022-12-20T12:24:02.633Z,7956.00
2022-12-20T12:25:02.604Z,7872.00
2022-12-20T12:26:02.633Z,7912.00
2022-12-20T12:27:02.611Z,7832.00
2022-12-20T12:28:02.574Z,7580.00
2022-12-20T12:29:02.567Z,7288.00
2022-12-20T12:30:02.563Z,7144.00
2022-12-20T12:31:02.581Z,7184.00
2022-12-20T12:32:02.645Z,7412.00
2022-12-20T12:33:02.551Z,7696.00
2022-12-20T12:34:02.544Z,7888.00
2022-12-20T12:35:02.512Z,7956.00
2022-12-20T12:36:02.542Z,7884.00
2022-12-20T12:37:02.481Z,7620.00
2022-12-20T12:38:02.465Z,7260.00
2022-12-20T12:39:02.870Z,7032.00
2022-12-20T12:40:02.458Z,7004.00
2022-12-20T12:41:02.477Z,7040.00
2022-12-20T12:42:02.430Z,6956.00
2022-12-20T12:43:02.430Z,6784.00
2022-12-20T12:44:02.407Z,6732.00